Time;durP1;ratioP1;P1;durP2;ratioP2;P2;SDS_P1;SDS_P2;PMS_P1;PMS_P2;Temp;Humidity;BMP_temperature;BMP_pressure;BME280_temperature;BME280_humidity;BME280_pressure;Samples;Min_cycle;Max_cycle;Signal;HPM_P1;HPM_P2
2023/05/27 00:01:01;;;;;;;8.60;7.47;;;10.50;99.90;;;;;;5034130;28;20191;-65
2023/05/27 00:03:27;;;;;;;11.23;7.90;;;10.50;99.90;;;;;;5034832;28;20257;-65
2023/05/27 00:05:53;;;;;;;10.87;8.83;;;10.40;99.90;;;;;;5034525;28;20212;-65
2023/05/27 00:08:18;;;;;;;16.13;8.47;;;10.40;99.90;;;;;;5034155;28;20249;-65
2023/05/27 00:10:44;;;;;;;15.07;8.40;;;10.40;99.90;;;;;;5034083;28;20196;-65
2023/05/27 00:13:11;;;;;;;15.83;8.33;;;10.30;99.90;;;;;;5034008;28;20226;-65
2023/05/27 00:15:40;;;;;;;13.20;8.13;;;10.30;99.90;;;;;;5034187;28;20183;-65
2023/05/27 00:18:06;;;;;;;15.83;8.10;;;10.20;99.90;;;;;;5034004;28;20175;-65
2023/05/27 00:20:32;;;;;;;12.67;7.73;;;10.20;99.90;;;;;;5034010;28;20195;-65
2023/05/27 00:22:59;;;;;;;12.77;7.37;;;10.20;99.90;;;;;;5033905;28;20194;-65
2023/05/27 00:25:25;;;;;;;10.97;7.47;;;10.10;99.90;;;;;;5034636;28;20179;-65
2023/05/27 00:27:50;;;;;;;11.03;7.87;;;10.10;99.90;;;;;;5034086;28;20186;-65
2023/05/27 00:30:16;;;;;;;14.03;8.10;;;10.00;99.90;;;;;;5033658;28;20750;-65
2023/05/27 00:32:42;;;;;;;9.57;7.27;;;10.10;99.90;;;;;;5033742;28;20632;-65
2023/05/27 00:35:08;;;;;;;20.07;8.73;;;10.00;99.90;;;;;;5033428;28;20674;-65
2023/05/27 00:37:34;;;;;;;16.90;8.17;;;10.00;99.90;;;;;;5033671;28;20180;-65
2023/05/27 00:40:00;;;;;;;17.30;8.03;;;10.00;99.90;;;;;;5033455;28;20225;-65
2023/05/27 00:42:25;;;;;;;11.13;9.77;;;9.90;99.90;;;;;;5033681;28;20179;-65
2023/05/27 00:44:52;;;;;;;11.90;9.17;;;9.90;99.90;;;;;;5033615;28;20197;-65
2023/05/27 00:47:19;;;;;;;12.23;9.53;;;9.90;99.90;;;;;;5033485;28;20191;-65
2023/05/27 00:49:45;;;;;;;19.13;9.97;;;9.80;99.90;;;;;;5033366;28;20762;-65
2023/05/27 00:52:13;;;;;;;11.77;8.20;;;9.80;99.90;;;;;;5033430;28;20561;-65
2023/05/27 00:54:40;;;;;;;20.60;8.50;;;9.80;99.90;;;;;;5033695;28;20680;-65
2023/05/27 00:57:06;;;;;;;11.57;7.90;;;9.70;99.90;;;;;;5033197;28;20586;-65
2023/05/27 00:59:31;;;;;;;14.07;8.50;;;9.70;99.90;;;;;;5033308;28;20199;-65
2023/05/27 01:01:57;;;;;;;16.10;8.43;;;9.70;99.90;;;;;;5033123;28;20258;-65
2023/05/27 01:04:24;;;;;;;14.53;6.97;;;9.60;99.90;;;;;;5033496;28;20179;-65
2023/05/27 01:06:56;;;;;;;8.60;7.73;;;9.60;99.90;;;;;;5032922;28;20221;-65
2023/05/27 01:09:43;;;;;;;17.83;7.73;;;9.50;99.90;;;;;;5032865;28;20298;-65
2023/05/27 01:12:18;;;;;;;14.23;9.77;;;9.40;99.90;;;;;;5013666;28;20176;-65
2023/05/27 01:14:45;;;;;;;18.73;9.13;;;9.40;99.90;;;;;;5015836;28;20183;-65
2023/05/27 01:17:12;;;;;;;9.77;7.70;;;9.40;99.90;;;;;;5033136;28;20741;-65
2023/05/27 01:19:44;;;;;;;12.47;8.43;;;9.40;99.90;;;;;;5032731;28;20700;-65
2023/05/27 01:22:12;;;;;;;15.53;10.27;;;9.40;99.90;;;;;;5033089;28;20210;-65
2023/05/27 01:24:38;;;;;;;15.97;8.70;;;9.30;99.90;;;;;;5033043;28;20168;-65
2023/05/27 01:27:03;;;;;;;11.23;7.80;;;9.30;99.90;;;;;;5032797;28;20538;-65
2023/05/27 01:29:32;;;;;;;18.70;8.67;;;9.20;99.90;;;;;;5032665;28;20195;-65
2023/05/27 01:31:58;;;;;;;13.67;8.90;;;9.20;99.90;;;;;;5032607;28;20202;-65
2023/05/27 01:34:35;;;;;;;14.90;9.27;;;9.20;99.90;;;;;;5032534;28;20203;-65
2023/05/27 01:37:06;;;;;;;21.47;10.00;;;9.20;99.90;;;;;;5032666;28;20267;-65
2023/05/27 01:39:33;;;;;;;12.47;9.40;;;9.10;99.90;;;;;;5032207;28;20192;-65
2023/05/27 01:42:01;;;;;;;21.03;8.80;;;9.10;99.90;;;;;;5032647;28;20716;-65
2023/05/27 01:44:29;;;;;;;13.27;9.43;;;9.10;99.90;;;;;;5032429;28;20261;-65
2023/05/27 01:47:01;;;;;;;11.27;8.53;;;9.00;99.90;;;;;;5031665;28;20179;-65
2023/05/27 01:49:28;;;;;;;12.67;8.37;;;9.00;99.90;;;;;;5032025;28;20192;-65
2023/05/27 01:51:54;;;;;;;13.73;8.40;;;8.90;99.90;;;;;;5032439;28;20587;-65
2023/05/27 01:54:20;;;;;;;14.10;8.47;;;8.90;99.90;;;;;;5032155;28;20543;-65
2023/05/27 01:56:45;;;;;;;13.00;8.70;;;8.90;99.90;;;;;;5032378;28;20322;-65
2023/05/27 01:59:11;;;;;;;13.70;9.70;;;8.90;99.90;;;;;;5031823;28;20181;-65
2023/05/27 02:01:36;;;;;;;17.03;9.33;;;8.90;99.90;;;;;;5032023;28;20175;-65
2023/05/27 02:04:03;;;;;;;14.00;10.10;;;8.90;99.90;;;;;;5032177;28;20269;-65
2023/05/27 02:06:29;;;;;;;23.17;10.67;;;8.90;99.90;;;;;;5032213;28;20172;-65
2023/05/27 02:08:55;;;;;;;11.63;8.33;;;8.90;99.90;;;;;;5031827;28;20199;-65
2023/05/27 02:11:20;;;;;;;11.23;8.23;;;8.80;99.90;;;;;;5032198;28;20179;-65
2023/05/27 02:13:46;;;;;;;14.70;8.80;;;8.80;99.90;;;;;;5031924;28;20207;-65
2023/05/27 02:16:12;;;;;;;22.33;9.20;;;8.80;99.90;;;;;;5032073;28;20168;-65
2023/05/27 02:18:38;;;;;;;15.77;8.73;;;8.80;99.90;;;;;;5031815;28;20274;-65
2023/05/27 02:21:06;;;;;;;15.43;8.53;;;8.70;99.90;;;;;;5031365;28;20183;-65
2023/05/27 02:23:36;;;;;;;16.33;8.77;;;8.70;99.90;;;;;;5031705;28;20646;-65
2023/05/27 02:26:02;;;;;;;12.43;8.10;;;8.60;99.90;;;;;;5031850;28;20207;-65
2023/05/27 02:28:27;;;;;;;13.10;8.27;;;8.60;99.90;;;;;;5031670;28;20183;-65
2023/05/27 02:30:53;;;;;;;21.63;8.23;;;8.60;99.90;;;;;;5031308;28;20241;-70
2023/05/27 02:33:19;;;;;;;10.30;8.23;;;8.60;99.90;;;;;;5032704;28;20214;-71
2023/05/27 02:35:45;;;;;;;11.57;8.80;;;8.60;99.90;;;;;;5031551;28;20186;-69
2023/05/27 02:38:11;;;;;;;23.77;8.37;;;8.60;99.90;;;;;;5031435;28;20171;-70
2023/05/27 02:40:37;;;;;;;14.20;8.83;;;8.70;99.90;;;;;;5032413;28;20194;-71
2023/05/27 02:43:02;;;;;;;12.60;8.43;;;8.60;99.90;;;;;;5032462;28;20171;-68
2023/05/27 02:45:28;;;;;;;14.40;8.83;;;8.60;99.90;;;;;;5033002;28;20175;-69
2023/05/27 02:47:55;;;;;;;10.60;9.23;;;8.60;99.90;;;;;;5032560;28;20179;-69
2023/05/27 02:50:21;;;;;;;13.53;9.30;;;8.50;99.90;;;;;;5032443;28;20669;-69
2023/05/27 02:52:46;;;;;;;18.10;8.50;;;8.50;99.90;;;;;;5032265;28;20196;-68
2023/05/27 02:55:12;;;;;;;14.37;8.83;;;8.50;99.90;;;;;;5031103;28;20294;-70
2023/05/27 02:57:37;;;;;;;17.13;8.67;;;8.40;99.90;;;;;;5032639;28;20373;-70
2023/05/27 03:00:04;;;;;;;11.47;8.53;;;8.40;99.90;;;;;;5031764;28;20273;-69
2023/05/27 03:02:30;;;;;;;17.03;8.87;;;8.40;99.90;;;;;;5032423;28;20191;-71
2023/05/27 03:04:56;;;;;;;15.27;8.33;;;8.40;99.90;;;;;;5032712;28;20229;-66
2023/05/27 03:07:22;;;;;;;20.00;9.73;;;8.40;99.90;;;;;;5032332;28;20172;-68
2023/05/27 03:09:48;;;;;;;16.57;9.43;;;8.30;99.90;;;;;;5031810;28;20207;-67
2023/05/27 03:12:13;;;;;;;19.47;9.37;;;8.30;99.90;;;;;;5031340;28;20226;-71
2023/05/27 03:14:39;;;;;;;13.77;8.77;;;8.30;99.90;;;;;;5032424;28;20211;-67
2023/05/27 03:17:05;;;;;;;11.77;8.50;;;8.20;99.90;;;;;;5032277;28;20168;-71
2023/05/27 03:19:30;;;;;;;15.50;8.97;;;8.20;99.90;;;;;;5031938;28;20198;-70
2023/05/27 03:21:56;;;;;;;12.13;9.77;;;8.20;99.90;;;;;;5032544;28;20584;-68
2023/05/27 03:24:22;;;;;;;15.70;9.00;;;8.20;99.90;;;;;;5032391;28;20180;-71
2023/05/27 03:26:48;;;;;;;14.83;9.13;;;8.20;99.90;;;;;;5032605;28;20249;-69
2023/05/27 03:29:15;;;;;;;13.23;8.83;;;8.20;99.90;;;;;;5031747;28;20191;-71
2023/05/27 03:31:41;;;;;;;18.80;9.70;;;8.20;99.90;;;;;;5032344;28;20253;-72
2023/05/27 03:34:07;;;;;;;14.90;9.00;;;8.20;99.90;;;;;;5032193;28;20207;-70
2023/05/27 03:36:34;;;;;;;14.90;9.53;;;8.20;99.90;;;;;;5031295;28;20210;-68
2023/05/27 03:39:00;;;;;;;16.17;8.77;;;8.20;99.90;;;;;;5032054;28;20649;-68
2023/05/27 03:41:26;;;;;;;14.47;9.53;;;8.20;99.90;;;;;;5032326;28;20190;-68
2023/05/27 03:43:51;;;;;;;16.03;9.37;;;8.10;99.90;;;;;;5032532;28;20646;-68
2023/05/27 03:46:17;;;;;;;18.33;9.13;;;8.10;99.90;;;;;;5032842;28;20184;-69
2023/05/27 03:48:42;;;;;;;18.90;9.73;;;8.10;99.90;;;;;;5032859;28;20179;-68
2023/05/27 03:51:08;;;;;;;11.67;8.40;;;8.10;99.90;;;;;;5032533;28;20683;-68
2023/05/27 03:53:35;;;;;;;26.47;9.90;;;8.10;99.90;;;;;;5032369;28;20215;-71
2023/05/27 03:56:00;;;;;;;9.97;9.00;;;8.10;99.90;;;;;;5032537;28;20270;-70
2023/05/27 03:58:26;;;;;;;17.07;9.27;;;8.10;99.90;;;;;;5031956;28;20271;-68
2023/05/27 04:00:52;;;;;;;18.07;9.00;;;8.10;99.90;;;;;;5031907;28;20278;-70
2023/05/27 04:03:18;;;;;;;11.77;8.70;;;8.20;99.90;;;;;;5031367;28;20195;-70
2023/05/27 04:05:44;;;;;;;14.03;8.43;;;8.20;99.90;;;;;;5032872;28;20175;-69
2023/05/27 04:08:09;;;;;;;12.73;8.07;;;8.30;99.90;;;;;;5032863;28;20191;-69
2023/05/27 04:10:35;;;;;;;15.87;8.93;;;8.30;99.90;;;;;;5035849;28;20204;-69
2023/05/27 04:13:01;;;;;;;11.17;8.47;;;8.30;99.90;;;;;;5035851;28;20549;-69
2023/05/27 04:15:26;;;;;;;15.47;9.10;;;8.30;99.90;;;;;;5036124;28;20260;-70
2023/05/27 04:17:52;;;;;;;16.43;9.27;;;8.30;99.90;;;;;;5036047;28;20235;-69
2023/05/27 04:20:18;;;;;;;15.47;9.20;;;8.40;99.90;;;;;;5034740;28;20673;-66
2023/05/27 04:22:43;;;;;;;11.97;8.77;;;8.40;99.90;;;;;;5033964;28;20199;-66
2023/05/27 04:25:09;;;;;;;12.53;9.10;;;8.40;99.90;;;;;;5034139;28;20250;-66
2023/05/27 04:27:36;;;;;;;14.33;8.37;;;8.50;99.90;;;;;;5034084;28;20175;-66
2023/05/27 04:30:05;;;;;;;13.13;8.70;;;8.60;99.90;;;;;;5033838;28;20560;-66
2023/05/27 04:32:37;;;;;;;19.53;8.87;;;8.70;99.90;;;;;;5033774;28;20265;-66
2023/05/27 04:35:04;;;;;;;20.63;10.20;;;8.70;99.90;;;;;;5033770;28;20172;-66
2023/05/27 04:37:30;;;;;;;13.33;8.60;;;8.80;99.90;;;;;;5033872;28;20180;-66
2023/05/27 04:39:56;;;;;;;17.10;9.03;;;8.90;99.90;;;;;;5033654;28;20207;-66
2023/05/27 04:42:23;;;;;;;19.17;9.50;;;8.90;99.90;;;;;;5033846;28;20266;-66
2023/05/27 04:44:48;;;;;;;18.97;9.30;;;9.00;99.90;;;;;;5034161;28;20176;-66
2023/05/27 04:47:14;;;;;;;19.27;8.47;;;9.10;99.90;;;;;;5033804;28;20593;-66
2023/05/27 04:49:40;;;;;;;14.83;9.47;;;9.20;99.90;;;;;;5033631;28;20566;-66
2023/05/27 04:52:06;;;;;;;16.57;9.23;;;9.20;99.90;;;;;;5034025;28;20176;-66
2023/05/27 04:54:33;;;;;;;12.50;8.43;;;9.30;99.90;;;;;;5033327;28;20212;-66
2023/05/27 04:56:59;;;;;;;14.53;9.47;;;9.50;99.90;;;;;;5033471;28;20206;-66
2023/05/27 04:59:35;;;;;;;13.90;8.67;;;9.70;99.90;;;;;;5033183;28;20249;-67
2023/05/27 05:02:09;;;;;;;12.97;8.17;;;9.90;99.90;;;;;;5033548;28;20175;-66
2023/05/27 05:04:38;;;;;;;15.27;8.40;;;10.20;99.90;;;;;;5033333;28;20195;-66
2023/05/27 05:07:04;;;;;;;8.07;7.27;;;10.50;99.90;;;;;;5033263;28;20208;-66
2023/05/27 05:09:30;;;;;;;19.20;8.83;;;10.80;99.90;;;;;;5032986;28;20223;-66
2023/05/27 05:11:55;;;;;;;15.20;8.43;;;11.00;99.90;;;;;;5033157;28;20180;-67
2023/05/27 05:14:21;;;;;;;13.37;8.20;;;11.30;99.90;;;;;;5033349;28;20207;-66
2023/05/27 05:16:47;;;;;;;14.30;7.93;;;11.50;99.90;;;;;;5033036;28;20639;-66
2023/05/27 05:19:13;;;;;;;15.43;9.17;;;11.60;99.90;;;;;;5032854;28;20172;-67
2023/05/27 05:21:38;;;;;;;10.17;7.17;;;11.70;99.90;;;;;;5031755;28;20180;-66
2023/05/27 05:24:04;;;;;;;14.77;7.10;;;11.90;99.90;;;;;;5033118;28;20179;-66
2023/05/27 05:26:30;;;;;;;13.90;8.73;;;12.10;99.90;;;;;;5032915;28;20310;-66
2023/05/27 05:28:56;;;;;;;12.17;8.23;;;12.20;99.90;;;;;;5032923;28;20262;-66
2023/05/27 05:31:21;;;;;;;11.97;8.47;;;12.20;99.90;;;;;;5032222;28;20594;-66
2023/05/27 05:33:47;;;;;;;15.23;9.03;;;12.30;99.90;;;;;;5032779;28;20207;-66
2023/05/27 05:36:12;;;;;;;11.03;7.23;;;12.40;99.90;;;;;;5032669;28;20179;-67
2023/05/27 05:38:38;;;;;;;13.33;7.73;;;12.40;99.90;;;;;;5032868;28;20645;-67
2023/05/27 05:41:03;;;;;;;15.03;8.73;;;12.40;99.90;;;;;;5031882;28;20559;-66
2023/05/27 05:43:29;;;;;;;12.97;8.50;;;12.50;99.90;;;;;;5032761;28;20179;-66
2023/05/27 05:45:55;;;;;;;12.07;8.13;;;12.70;99.90;;;;;;5032601;28;20199;-66
2023/05/27 05:48:20;;;;;;;14.17;6.63;;;12.90;99.90;;;;;;5032696;28;20176;-64
2023/05/27 05:50:46;;;;;;;13.33;6.80;;;13.30;99.90;;;;;;5032178;28;20693;-64
2023/05/27 05:53:12;;;;;;;14.23;6.77;;;13.60;99.90;;;;;;5032127;28;20207;-65
2023/05/27 05:55:37;;;;;;;13.50;7.40;;;14.00;99.90;;;;;;5033014;28;20657;-64
2023/05/27 05:58:03;;;;;;;12.83;6.83;;;14.50;99.90;;;;;;5032144;28;20262;-64
2023/05/27 06:00:28;;;;;;;12.27;6.83;;;14.90;99.90;;;;;;5031789;28;20215;-66
2023/05/27 06:02:54;;;;;;;17.70;7.00;;;15.40;99.90;;;;;;5032795;28;20175;-66
2023/05/27 06:05:21;;;;;;;12.17;6.80;;;15.70;99.90;;;;;;5032177;28;20186;-64
2023/05/27 06:07:47;;;;;;;11.60;6.30;;;16.20;99.90;;;;;;5032314;28;20210;-64
2023/05/27 06:10:13;;;;;;;15.77;6.50;;;16.50;99.90;;;;;;5031495;28;20675;-64
2023/05/27 06:12:39;;;;;;;14.90;6.50;;;17.00;99.90;;;;;;5032487;28;20254;-64
2023/05/27 06:15:05;;;;;;;12.00;5.90;;;17.40;99.90;;;;;;5031627;28;20207;-64
2023/05/27 06:17:30;;;;;;;11.80;6.63;;;17.70;99.90;;;;;;5032256;28;20178;-64
2023/05/27 06:19:56;;;;;;;12.83;5.53;;;17.80;99.90;;;;;;5031263;28;20203;-64
2023/05/27 06:22:21;;;;;;;10.17;5.77;;;17.80;99.90;;;;;;5030884;28;20263;-65
2023/05/27 06:24:47;;;;;;;10.57;6.13;;;17.90;99.90;;;;;;5031641;28;20187;-64
2023/05/27 06:27:13;;;;;;;11.37;6.07;;;18.00;99.90;;;;;;5031982;28;20175;-64
2023/05/27 06:29:38;;;;;;;11.13;5.83;;;18.10;99.90;;;;;;5031399;28;20190;-64
2023/05/27 06:32:04;;;;;;;8.87;5.77;;;18.30;99.90;;;;;;5031213;28;20302;-64
2023/05/27 06:34:30;;;;;;;15.85;5.78;;;18.50;99.90;;;;;;5031172;28;20582;-64
2023/05/27 06:36:56;;;;;;;11.57;5.95;;;18.80;99.90;;;;;;5031505;28;20164;-64
2023/05/27 06:39:22;;;;;;;11.47;5.70;;;18.90;99.90;;;;;;5030997;28;20200;-64
2023/05/27 06:41:48;;;;;;;12.97;6.23;;;19.00;99.90;;;;;;5031500;28;20181;-64
2023/05/27 06:44:14;;;;;;;14.13;6.63;;;19.10;99.90;;;;;;5031486;28;20186;-64
2023/05/27 06:46:39;;;;;;;13.82;6.15;;;19.40;99.90;;;;;;5031393;28;20191;-64
2023/05/27 06:49:05;;;;;;;8.63;6.20;;;19.70;99.90;;;;;;5030754;28;20599;-64
2023/05/27 06:51:31;;;;;;;10.27;6.22;;;19.70;99.90;;;;;;5031234;28;20302;-64
2023/05/27 06:53:57;;;;;;;10.38;6.47;;;20.00;99.90;;;;;;5030766;28;20237;-64
2023/05/27 06:56:23;;;;;;;14.95;7.40;;;20.20;99.90;;;;;;5031653;28;20543;-64
2023/05/27 06:58:48;;;;;;;11.77;6.70;;;20.10;99.90;;;;;;5031884;28;20193;-64
2023/05/27 07:01:14;;;;;;;10.88;5.97;;;20.10;99.90;;;;;;5030916;28;20186;-64
2023/05/27 07:03:41;;;;;;;12.02;5.93;;;20.20;99.90;;;;;;5031061;28;20171;-64
2023/05/27 07:06:07;;;;;;;12.25;5.47;;;20.60;99.90;;;;;;5031247;28;20186;-64
2023/05/27 07:08:33;;;;;;;9.13;5.93;;;20.90;99.90;;;;;;5031036;28;20188;-64
2023/05/27 07:10:58;;;;;;;11.27;6.45;;;21.10;99.90;;;;;;5030697;28;20199;-64
2023/05/27 07:13:24;;;;;;;13.63;7.47;;;21.20;99.90;;;;;;5030628;28;20213;-64
2023/05/27 07:15:50;;;;;;;13.13;6.95;;;21.10;99.90;;;;;;5031063;28;20657;-64
2023/05/27 07:18:16;;;;;;;11.35;6.40;;;20.90;99.90;;;;;;5031085;28;20182;-64
2023/05/27 07:20:42;;;;;;;9.82;8.65;;;20.90;99.90;;;;;;5030698;28;20266;-64
2023/05/27 07:23:08;;;;;;;9.05;5.57;;;21.10;99.90;;;;;;5030696;28;20194;-64
2023/05/27 07:25:34;;;;;;;9.65;5.20;;;21.60;99.90;;;;;;5031395;28;20179;-65
2023/05/27 07:27:59;;;;;;;10.65;5.22;;;21.80;99.90;;;;;;5030728;28;20179;-64
2023/05/27 07:30:25;;;;;;;6.35;5.10;;;21.90;99.90;;;;;;5030636;28;20545;-65
2023/05/27 07:32:52;;;;;;;10.90;5.57;;;22.00;99.90;;;;;;5029169;28;20241;-64
2023/05/27 07:35:18;;;;;;;9.02;4.85;;;21.80;99.90;;;;;;5030818;28;20176;-65
2023/05/27 07:37:43;;;;;;;8.95;5.05;;;21.80;99.90;;;;;;5030838;28;20263;-64
2023/05/27 07:40:09;;;;;;;8.70;5.13;;;22.20;99.90;;;;;;5030448;28;20210;-65
2023/05/27 07:42:36;;;;;;;7.38;5.15;;;22.60;99.90;;;;;;5030723;28;20182;-65
2023/05/27 07:45:03;;;;;;;11.98;5.22;;;22.80;99.90;;;;;;5033493;28;20258;-65
2023/05/27 07:47:28;;;;;;;6.80;4.75;;;22.90;99.90;;;;;;5033121;28;20657;-64
2023/05/27 07:49:54;;;;;;;10.45;5.13;;;22.90;99.90;;;;;;5034180;28;20226;-64
2023/05/27 07:52:19;;;;;;;9.02;4.72;;;22.80;99.90;;;;;;5034743;28;20181;-64
2023/05/27 07:54:45;;;;;;;10.63;6.25;;;22.70;99.90;;;;;;5034473;28;20290;-64
2023/05/27 07:57:11;;;;;;;7.68;5.05;;;22.90;99.90;;;;;;5034429;28;20195;-64
2023/05/27 07:59:36;;;;;;;11.43;5.10;;;22.70;99.90;;;;;;5033841;28;20222;-64
2023/05/27 08:02:02;;;;;;;8.98;5.90;;;22.70;99.90;;;;;;5034468;28;20171;-64
2023/05/27 08:04:28;;;;;;;6.00;4.68;;;23.00;99.90;;;;;;5034360;28;20275;-64
2023/05/27 08:06:53;;;;;;;9.93;5.32;;;22.90;99.90;;;;;;5034279;28;20203;-65
2023/05/27 08:09:19;;;;;;;10.50;5.40;;;23.20;99.90;;;;;;5033533;28;20216;-64
2023/05/27 08:11:44;;;;;;;7.32;5.40;;;23.20;99.90;;;;;;5034802;28;20176;-64
2023/05/27 08:14:10;;;;;;;4.57;4.32;;;23.40;99.90;;;;;;5033784;28;20199;-64
2023/05/27 08:16:36;;;;;;;17.50;6.35;;;23.60;99.90;;;;;;5034424;28;20182;-64
2023/05/27 08:19:01;;;;;;;6.90;5.13;;;24.00;99.90;;;;;;5033846;28;20183;-64
2023/05/27 08:21:27;;;;;;;17.02;4.95;;;24.10;99.90;;;;;;5033963;28;20634;-64
2023/05/27 08:23:52;;;;;;;8.38;4.63;;;23.90;99.90;;;;;;5033818;28;20258;-64
2023/05/27 08:26:18;;;;;;;12.98;5.07;;;23.60;99.90;;;;;;5034202;28;20175;-64
2023/05/27 08:28:46;;;;;;;9.23;5.40;;;23.60;99.90;;;;;;5034159;28;20612;-65
2023/05/27 08:31:11;;;;;;;7.57;5.00;;;23.70;99.90;;;;;;5031645;28;20235;-64
2023/05/27 08:33:37;;;;;;;11.20;5.13;;;24.20;99.90;;;;;;5034081;28;20301;-64
2023/05/27 08:36:02;;;;;;;8.65;5.15;;;24.50;99.90;;;;;;5033681;28;20456;-64
2023/05/27 08:38:28;;;;;;;8.48;4.97;;;24.70;99.90;;;;;;5034005;28;20182;-64
2023/05/27 08:40:54;;;;;;;8.95;6.07;;;24.90;99.90;;;;;;5033188;28;20208;-65
2023/05/27 08:43:22;;;;;;;9.23;5.28;;;25.00;99.90;;;;;;5034155;28;20641;-65
2023/05/27 08:45:48;;;;;;;8.88;5.53;;;25.30;99.90;;;;;;5033452;28;20213;-65
2023/05/27 08:48:15;;;;;;;10.82;5.28;;;25.40;99.90;;;;;;5033054;28;20167;-65
2023/05/27 08:50:40;;;;;;;8.43;5.57;;;25.50;99.90;;;;;;5033242;28;20192;-65
2023/05/27 08:53:08;;;;;;;10.65;5.57;;;25.90;99.90;;;;;;5033441;28;20210;-64
2023/05/27 08:55:36;;;;;;;9.27;4.30;;;26.50;99.90;;;;;;5033355;28;20218;-65
2023/05/27 08:58:02;;;;;;;7.47;5.50;;;27.00;99.90;;;;;;5033461;28;20551;-65
2023/05/27 09:00:28;;;;;;;12.65;5.28;;;27.70;99.90;;;;;;5033246;28;20532;-64
2023/05/27 09:02:59;;;;;;;7.43;5.25;;;27.70;99.90;;;;;;5032805;28;20221;-65
2023/05/27 09:05:25;;;;;;;10.85;4.97;;;27.30;99.90;;;;;;5033465;28;20208;-64
2023/05/27 09:07:51;;;;;;;9.93;5.38;;;27.20;99.90;;;;;;5033428;28;20211;-65
2023/05/27 09:10:17;;;;;;;8.65;5.30;;;27.00;99.90;;;;;;5033053;28;20692;-65
2023/05/27 09:12:44;;;;;;;7.93;4.93;;;26.70;99.90;;;;;;5023132;28;20184;-65
2023/05/27 09:15:11;;;;;;;8.45;4.88;;;26.60;99.90;;;;;;5020965;28;20172;-65
2023/05/27 09:17:44;;;;;;;9.40;6.35;;;26.80;99.90;;;;;;5033112;28;20270;-64
2023/05/27 09:20:11;;;;;;;8.38;5.40;;;26.60;99.90;;;;;;5032567;28;20187;-64
2023/05/27 09:22:38;;;;;;;11.35;5.60;;;26.50;99.60;;;;;;5033050;28;20178;-65
2023/05/27 09:25:04;;;;;;;17.20;5.45;;;26.60;99.90;;;;;;5032047;28;20187;-65
2023/05/27 09:27:31;;;;;;;9.05;5.20;;;26.70;99.90;;;;;;5032811;28;20238;-64
2023/05/27 09:30:06;;;;;;;12.88;5.18;;;27.20;99.60;;;;;;5031343;28;20195;-65
2023/05/27 09:32:32;;;;;;;10.10;5.35;;;27.80;99.90;;;;;;5032970;28;20171;-65
2023/05/27 09:35:00;;;;;;;10.02;5.65;;;28.20;99.90;;;;;;5032452;28;20190;-65
2023/05/27 09:37:31;;;;;;;8.50;5.25;;;28.20;99.40;;;;;;5032912;28;20239;-65
2023/05/27 09:40:04;;;;;;;8.50;5.03;;;27.90;98.70;;;;;;5031442;28;20727;-65
2023/05/27 09:42:45;;;;;;;11.82;5.07;;;28.00;99.90;;;;;;5032654;28;20171;-65
2023/05/27 09:45:13;;;;;;;10.43;4.85;;;28.20;99.90;;;;;;5032141;28;20191;-65
2023/05/27 09:47:40;;;;;;;8.65;5.00;;;27.90;98.80;;;;;;5032535;28;20573;-65
2023/05/27 09:50:09;;;;;;;9.45;5.03;;;27.50;99.60;;;;;;5031673;28;20692;-65
2023/05/27 09:52:37;;;;;;;10.65;4.82;;;27.60;99.90;;;;;;5032373;28;20194;-65
2023/05/27 09:55:05;;;;;;;12.50;5.28;;;28.00;99.30;;;;;;5032089;28;20245;-65
2023/05/27 09:57:31;;;;;;;8.15;5.13;;;28.20;98.70;;;;;;5032264;28;20191;-65
2023/05/27 09:59:59;;;;;;;9.82;4.55;;;28.60;99.50;;;;;;5031775;28;20200;-65
2023/05/27 10:02:27;;;;;;;10.95;4.80;;;28.60;97.70;;;;;;5032487;28;20234;-65
2023/05/27 10:04:53;;;;;;;10.20;4.63;;;28.50;98.50;;;;;;5029843;28;20694;-65
2023/05/27 10:07:22;;;;;;;10.07;4.90;;;28.20;97.20;;;;;;5031260;28;20222;-65
2023/05/27 10:09:48;;;;;;;8.23;4.75;;;28.20;97.20;;;;;;5031531;28;20215;-65
2023/05/27 10:12:15;;;;;;;12.05;5.30;;;28.40;99.60;;;;;;5031968;28;20278;-65
2023/05/27 10:14:45;;;;;;;9.73;5.38;;;28.60;96.40;;;;;;5031943;28;20285;-65
2023/05/27 10:17:11;;;;;;;10.15;6.18;;;28.30;97.60;;;;;;5031657;28;20187;-64
2023/05/27 10:19:36;;;;;;;10.60;7.18;;;28.10;95.90;;;;;;5031585;28;20536;-65
2023/05/27 10:22:10;;;;;;;10.07;5.97;;;28.40;96.70;;;;;;5031474;28;20258;-65
2023/05/27 10:24:36;;;;;;;8.48;5.75;;;28.50;96.50;;;;;;5031671;28;20179;-65
2023/05/27 10:27:02;;;;;;;7.03;6.00;;;28.50;96.30;;;;;;5031670;28;20183;-65
2023/05/27 10:29:38;;;;;;;7.82;5.10;;;28.20;95.90;;;;;;5031434;28;20191;-67
2023/05/27 10:32:04;;;;;;;10.15;4.85;;;28.30;95.50;;;;;;5012024;28;20184;-65
2023/05/27 10:34:37;;;;;;;6.93;4.43;;;27.90;94.10;;;;;;5011732;28;20249;-65
2023/05/27 10:37:03;;;;;;;9.68;5.07;;;27.90;94.20;;;;;;5025509;28;20197;-65
2023/05/27 10:39:29;;;;;;;7.53;4.93;;;27.70;96.40;;;;;;5031184;28;20283;-65
2023/05/27 10:41:59;;;;;;;8.88;4.80;;;28.00;96.70;;;;;;5031432;28;20520;-65
2023/05/27 10:44:37;;;;;;;6.75;4.40;;;28.40;95.60;;;;;;5031353;28;20183;-65
2023/05/27 10:47:15;;;;;;;7.65;4.43;;;28.60;94.00;;;;;;5031384;28;20179;-64
2023/05/27 10:49:46;;;;;;;10.88;4.50;;;28.80;94.90;;;;;;5030921;28;20203;-65
2023/05/27 10:52:13;;;;;;;9.82;5.65;;;28.90;95.50;;;;;;5030181;28;20254;-65
2023/05/27 10:54:40;;;;;;;8.80;4.78;;;29.20;95.80;;;;;;5031123;28;20199;-65
2023/05/27 10:57:07;;;;;;;10.77;5.60;;;29.00;93.40;;;;;;5031244;28;20178;-65
2023/05/27 10:59:57;;;;;;;11.18;5.60;;;29.50;93.40;;;;;;5030768;28;20194;-65
2023/05/27 11:02:24;;;;;;;12.38;4.32;;;30.10;94.50;;;;;;5031404;28;20174;-64
2023/05/27 11:04:50;;;;;;;8.45;4.57;;;30.20;92.00;;;;;;5030924;28;20179;-65
2023/05/27 11:07:20;;;;;;;9.82;4.25;;;30.30;91.30;;;;;;5031226;28;20593;-65
2023/05/27 11:09:51;;;;;;;11.00;4.93;;;30.50;93.50;;;;;;5028510;28;20215;-65
2023/05/27 11:12:19;;;;;;;7.85;3.90;;;30.70;93.60;;;;;;5031270;28;20191;-65
2023/05/27 11:14:55;;;;;;;7.70;5.55;;;31.30;92.60;;;;;;5030816;28;20207;-65
2023/05/27 11:17:22;;;;;;;8.68;4.13;;;30.90;87.40;;;;;;5031254;28;20175;-65
2023/05/27 11:19:49;;;;;;;9.23;5.53;;;30.60;86.00;;;;;;5034528;28;20281;-65
2023/05/27 11:22:16;;;;;;;9.15;5.75;;;30.40;90.70;;;;;;5034951;28;20164;-65
2023/05/27 11:24:54;;;;;;;7.40;4.65;;;30.50;91.50;;;;;;5035154;28;20199;-65
2023/05/27 11:27:20;;;;;;;9.05;4.40;;;30.60;89.70;;;;;;5034782;28;20179;-64
2023/05/27 11:29:51;;;;;;;7.35;4.35;;;30.20;85.10;;;;;;5034865;28;20209;-64
2023/05/27 11:32:17;;;;;;;6.05;4.00;;;29.90;82.30;;;;;;5034927;28;20186;-65
2023/05/27 11:34:45;;;;;;;9.48;5.50;;;29.50;89.80;;;;;;5034915;28;20214;-65
2023/05/27 11:37:12;;;;;;;7.55;5.05;;;29.20;92.10;;;;;;5034857;28;20175;-65
2023/05/27 11:39:48;;;;;;;8.70;4.85;;;29.00;93.00;;;;;;5034525;28;20262;-65
2023/05/27 11:42:14;;;;;;;9.55;4.95;;;29.00;94.60;;;;;;5034643;28;20233;-66
2023/05/27 11:44:51;;;;;;;8.70;5.05;;;29.50;96.60;;;;;;5034939;28;20183;-65
2023/05/27 11:47:17;;;;;;;8.93;4.55;;;29.60;93.60;;;;;;5034470;28;20688;-66
2023/05/27 11:49:42;;;;;;;8.57;4.30;;;29.70;90.80;;;;;;5034629;28;20286;-65
2023/05/27 11:52:11;;;;;;;8.18;5.30;;;29.70;91.60;;;;;;5034308;28;20191;-65
2023/05/27 11:54:38;;;;;;;9.68;4.55;;;29.80;92.10;;;;;;5034633;28;20251;-65
2023/05/27 11:57:06;;;;;;;8.93;4.88;;;29.90;92.40;;;;;;5034223;28;20229;-65
2023/05/27 11:59:33;;;;;;;11.65;5.00;;;29.90;90.30;;;;;;5033946;28;20195;-65
2023/05/27 12:01:58;;;;;;;6.63;4.88;;;29.80;91.70;;;;;;5034137;28;20715;-65
2023/05/27 12:04:24;;;;;;;11.43;5.38;;;29.80;92.60;;;;;;5034726;28;20179;-65
2023/05/27 12:06:50;;;;;;;8.13;5.13;;;29.90;91.30;;;;;;5034182;28;20555;-66
2023/05/27 12:09:16;;;;;;;8.93;5.47;;;29.60;94.10;;;;;;5033747;28;20211;-66
2023/05/27 12:11:42;;;;;;;8.52;4.90;;;29.30;91.30;;;;;;5034406;28;20203;-65
2023/05/27 12:14:08;;;;;;;7.78;4.90;;;29.30;92.40;;;;;;5034459;28;20199;-65
2023/05/27 12:16:33;;;;;;;8.25;4.30;;;29.40;89.80;;;;;;5034443;28;20168;-64
2023/05/27 12:18:59;;;;;;;8.73;4.88;;;29.60;87.20;;;;;;5034297;28;20176;-65
2023/05/27 12:21:25;;;;;;;8.70;4.95;;;29.50;87.80;;;;;;5033936;28;20171;-65
2023/05/27 12:23:52;;;;;;;7.38;4.45;;;29.90;90.90;;;;;;5034214;28;20224;-65
2023/05/27 12:26:17;;;;;;;8.35;4.80;;;30.20;90.50;;;;;;5034184;28;20588;-65
2023/05/27 12:28:44;;;;;;;10.35;4.40;;;30.30;91.80;;;;;;5034153;28;20187;-66
2023/05/27 12:31:10;;;;;;;9.48;4.30;;;30.50;89.00;;;;;;5032035;28;20207;-65
2023/05/27 12:33:35;;;;;;;7.90;4.63;;;30.00;83.00;;;;;;5033835;28;20210;-66
2023/05/27 12:36:02;;;;;;;6.63;4.20;;;29.70;90.00;;;;;;5033759;28;20221;-65
2023/05/27 12:38:28;;;;;;;6.07;4.03;;;29.50;82.10;;;;;;5033943;28;20176;-66
2023/05/27 12:40:56;;;;;;;6.93;6.22;;;29.20;84.00;;;;;;5033381;28;20189;-65